createdAt,value
2023-04-08T00:01:29.097Z,5.34
2023-04-08T00:04:02.052Z,5.32
2023-04-08T00:06:35.352Z,5.34
2023-04-08T00:09:09.892Z,5.36
2023-04-08T00:11:40.744Z,5.38
2023-04-08T00:14:11.641Z,5.36
2023-04-08T00:16:42.465Z,5.33
2023-04-08T00:19:13.409Z,5.26
2023-04-08T00:21:44.343Z,5.29
2023-04-08T00:24:14.923Z,5.26
2023-04-08T00:26:45.472Z,5.33
2023-04-08T00:29:17.336Z,5.39
2023-04-08T00:31:49.700Z,5.26
2023-04-08T00:34:22.553Z,5.28
2023-04-08T00:36:53.183Z,5.26
2023-04-08T00:39:23.616Z,5.28
2023-04-08T00:41:54.528Z,5.22
2023-04-08T00:44:25.801Z,5.28
2023-04-08T00:46:56.521Z,5.36
2023-04-08T00:49:27.856Z,5.34
2023-04-08T00:52:01.824Z,5.20
2023-04-08T00:54:32.580Z,5.26
2023-04-08T00:57:04.931Z,5.32
2023-04-08T00:59:38.977Z,5.23
2023-04-08T01:02:21.712Z,5.36
2023-04-08T01:05:10.892Z,5.28
2023-04-08T01:07:47.464Z,5.32
2023-04-08T01:10:22.473Z,5.24
2023-04-08T01:13:06.282Z,5.23
2023-04-08T01:15:42.426Z,5.18
2023-04-08T01:18:15.564Z,5.24
2023-04-08T01:20:47.630Z,5.33
2023-04-08T01:23:41.295Z,5.26
2023-04-08T01:26:17.580Z,5.22
2023-04-08T01:28:52.136Z,5.30
2023-04-08T01:31:24.793Z,5.29
2023-04-08T01:33:57.170Z,5.24
2023-04-08T01:36:29.466Z,5.28
2023-04-08T01:39:02.925Z,5.30
2023-04-08T01:41:36.765Z,5.34
2023-04-08T01:44:07.393Z,5.29
2023-04-08T01:46:39.799Z,5.40
2023-04-08T01:49:12.014Z,5.42
2023-04-08T01:51:42.710Z,5.44
2023-04-08T01:54:13.524Z,5.49
2023-04-08T01:56:46.472Z,5.42
2023-04-08T01:59:20.029Z,5.47
2023-04-08T02:01:52.246Z,5.32
2023-04-08T02:04:22.966Z,5.34
2023-04-08T02:06:57.410Z,5.39
2023-04-08T02:09:28.163Z,5.42
2023-04-08T02:12:00.518Z,5.49
2023-04-08T02:14:32.408Z,5.51
2023-04-08T02:17:08.814Z,5.54
2023-04-08T02:19:51.328Z,5.35
2023-04-08T02:22:43.329Z,5.42
2023-04-08T02:25:16.356Z,5.49
2023-04-08T02:27:49.401Z,5.56
2023-04-08T02:30:23.459Z,5.56
2023-04-08T02:32:57.220Z,5.54
2023-04-08T02:35:29.838Z,5.53
2023-04-08T02:38:01.055Z,5.50
2023-04-08T02:40:33.200Z,5.50
2023-04-08T02:43:04.161Z,5.48
2023-04-08T02:45:39.419Z,5.46
2023-04-08T02:48:10.582Z,5.54
2023-04-08T02:50:41.479Z,5.53
2023-04-08T02:53:12.009Z,5.51
2023-04-08T02:55:42.731Z,5.54
2023-04-08T02:58:13.404Z,5.49
2023-04-08T03:00:44.498Z,5.63
2023-04-08T03:03:17.053Z,5.64
2023-04-08T03:05:50.488Z,5.54
2023-04-08T03:08:21.551Z,5.55
2023-04-08T03:10:52.157Z,5.63
2023-04-08T03:13:22.830Z,5.58
2023-04-08T03:15:54.972Z,5.67
2023-04-08T03:18:27.161Z,5.67
2023-04-08T03:21:01.042Z,5.60
2023-04-08T03:23:31.731Z,5.58
2023-04-08T03:26:03.788Z,5.60
2023-04-08T03:28:35.741Z,5.62
2023-04-08T03:31:06.889Z,5.52
2023-04-08T03:33:37.387Z,5.66
2023-04-08T03:36:08.805Z,5.53
2023-04-08T03:38:39.584Z,5.57
2023-04-08T03:41:09.990Z,5.54
2023-04-08T03:43:40.719Z,5.50
2023-04-08T03:46:11.508Z,5.52
2023-04-08T03:48:43.708Z,5.60
2023-04-08T03:51:14.411Z,5.64
2023-04-08T03:53:45.092Z,5.56
2023-04-08T03:56:16.186Z,5.46
2023-04-08T03:58:46.847Z,5.51
2023-04-08T04:01:17.348Z,5.48
2023-04-08T04:03:48.637Z,5.54
2023-04-08T04:06:19.459Z,5.52
2023-04-08T04:08:50.568Z,5.56
2023-04-08T04:11:22.426Z,5.52
2023-04-08T04:13:52.945Z,5.60
2023-04-08T04:16:23.834Z,5.56
2023-04-08T04:18:55.812Z,5.54
2023-04-08T04:21:27.057Z,5.64
2023-04-08T04:24:00.465Z,5.60
2023-04-08T04:26:31.190Z,5.72
2023-04-08T04:29:03.842Z,5.66
2023-04-08T04:31:34.534Z,5.72
2023-04-08T04:34:05.760Z,5.74
2023-04-08T04:36:38.005Z,5.72
2023-04-08T04:39:09.008Z,5.70
2023-04-08T04:41:43.091Z,5.66
2023-04-08T04:44:14.059Z,5.74
2023-04-08T04:46:46.169Z,5.89
2023-04-08T04:49:16.741Z,5.72
2023-04-08T04:51:48.681Z,5.64
2023-04-08T04:54:19.238Z,5.67
2023-04-08T04:56:50.008Z,5.66
2023-04-08T04:59:20.675Z,5.78
2023-04-08T05:01:53.779Z,5.80
2023-04-08T05:04:26.472Z,5.81
2023-04-08T05:07:02.471Z,5.87
2023-04-08T05:09:35.217Z,5.76
2023-04-08T05:12:06.194Z,5.84
2023-04-08T05:14:36.829Z,5.83
2023-04-08T05:17:08.440Z,5.84
2023-04-08T05:19:39.046Z,5.77
2023-04-08T05:22:13.573Z,5.82
2023-04-08T05:24:45.673Z,5.86
2023-04-08T05:27:16.199Z,5.86
2023-04-08T05:29:49.215Z,5.99
2023-04-08T05:32:19.894Z,5.95
2023-04-08T05:34:50.919Z,5.94
2023-04-08T05:37:23.228Z,5.96
2023-04-08T05:39:53.992Z,5.99
2023-04-08T05:42:26.867Z,6.10
2023-04-08T05:44:57.375Z,6.18
2023-04-08T05:47:31.115Z,6.08
2023-04-08T05:50:01.879Z,6.10
2023-04-08T05:52:32.613Z,6.08
2023-04-08T05:55:03.238Z,6.01
2023-04-08T05:57:33.833Z,6.06
2023-04-08T06:00:06.341Z,6.01
2023-04-08T06:02:37.340Z,6.06
2023-04-08T06:05:10.213Z,6.06
2023-04-08T06:07:43.833Z,6.17
2023-04-08T06:10:14.601Z,6.25
2023-04-08T06:12:45.363Z,6.36
2023-04-08T06:15:18.091Z,6.32
2023-04-08T06:17:52.205Z,6.32
2023-04-08T06:20:23.210Z,6.50
2023-04-08T06:22:56.060Z,6.37
2023-04-08T06:25:26.214Z,6.44
2023-04-08T06:27:56.852Z,6.48
2023-04-08T06:30:27.427Z,6.62
2023-04-08T06:32:57.904Z,6.88
2023-04-08T06:35:28.642Z,6.73
2023-04-08T06:38:00.403Z,6.96
2023-04-08T06:40:32.793Z,6.89
2023-04-08T06:43:03.690Z,6.96
2023-04-08T06:45:36.186Z,7.03
2023-04-08T06:48:08.460Z,7.10
2023-04-08T06:50:39.055Z,6.81
2023-04-08T06:53:09.702Z,6.97
2023-04-08T06:55:40.193Z,6.99
2023-04-08T06:58:10.937Z,7.12
2023-04-08T07:00:42.750Z,6.96
2023-04-08T07:03:13.443Z,7.16
2023-04-08T07:05:45.311Z,7.32
2023-04-08T07:08:17.226Z,7.26
2023-04-08T07:10:50.342Z,7.12
2023-04-08T07:13:20.946Z,7.46
2023-04-08T07:15:51.584Z,7.38
2023-04-08T07:18:22.612Z,7.51
2023-04-08T07:20:55.698Z,7.47
2023-04-08T07:23:26.269Z,7.54
2023-04-08T07:25:57.008Z,7.61
2023-04-08T07:28:29.582Z,7.73
2023-04-08T07:31:17.469Z,8.22
2023-04-08T07:33:48.273Z,8.11
2023-04-08T07:36:19.753Z,8.32
2023-04-08T07:38:51.324Z,8.38
2023-04-08T07:41:23.485Z,8.24
2023-04-08T07:43:55.073Z,8.50
2023-04-08T07:46:28.550Z,8.48
2023-04-08T07:48:59.136Z,8.50
2023-04-08T07:51:29.996Z,8.76
2023-04-08T07:54:01.626Z,8.40
2023-04-08T07:56:32.231Z,8.60
2023-04-08T07:59:03.145Z,8.40
2023-04-08T08:01:35.815Z,8.44
2023-04-08T08:04:06.661Z,8.40
2023-04-08T08:06:37.253Z,8.52
2023-04-08T08:09:07.731Z,9.25
2023-04-08T08:11:38.385Z,9.16
2023-04-08T08:14:08.950Z,8.93
2023-04-08T08:16:40.214Z,9.06
2023-04-08T08:19:12.438Z,9.34
2023-04-08T08:21:44.103Z,9.10
2023-04-08T08:24:16.903Z,9.29
2023-04-08T08:26:49.113Z,9.59
2023-04-08T08:29:19.698Z,9.48
2023-04-08T08:31:52.427Z,9.99
2023-04-08T08:34:24.400Z,10.04
2023-04-08T08:36:55.967Z,9.92
2023-04-08T08:39:26.958Z,9.80
2023-04-08T08:41:57.913Z,10.28
2023-04-08T08:44:28.861Z,10.12
2023-04-08T08:46:59.577Z,9.88
2023-04-08T08:49:30.705Z,9.96
2023-04-08T08:52:01.902Z,9.71
2023-04-08T08:54:32.591Z,9.84
2023-04-08T08:57:04.684Z,9.69
2023-04-08T08:59:35.659Z,10.03
2023-04-08T09:02:10.959Z,10.18
2023-04-08T09:04:45.944Z,10.29
2023-04-08T09:07:16.801Z,10.08
2023-04-08T09:09:51.664Z,10.18
2023-04-08T09:12:22.753Z,9.74
2023-04-08T09:14:54.832Z,9.95
2023-04-08T09:17:41.481Z,9.94
2023-04-08T09:20:15.455Z,9.79
2023-04-08T09:23:03.296Z,10.00
2023-04-08T09:25:35.113Z,9.50
2023-04-08T09:28:06.299Z,9.67
2023-04-08T09:30:36.885Z,9.68
2023-04-08T09:33:07.572Z,9.87
2023-04-08T09:35:38.787Z,10.21
2023-04-08T09:38:09.646Z,10.09
2023-04-08T09:40:46.342Z,10.29
2023-04-08T09:43:20.553Z,10.41
2023-04-08T09:45:52.148Z,9.89
2023-04-08T09:48:28.699Z,9.54
2023-04-08T09:51:00.453Z,9.64
2023-04-08T09:53:39.818Z,9.69
2023-04-08T09:56:13.079Z,9.64
2023-04-08T09:58:47.292Z,9.89
2023-04-08T10:01:21.040Z,10.15
2023-04-08T10:03:54.989Z,10.00
2023-04-08T10:06:29.659Z,10.06
2023-04-08T10:09:02.868Z,10.37
2023-04-08T10:11:34.655Z,10.18
2023-04-08T10:14:06.923Z,9.95
2023-04-08T10:16:38.976Z,9.86
2023-04-08T10:19:43.025Z,9.82
2023-04-08T10:22:37.235Z,10.00
2023-04-08T10:25:20.420Z,10.40
2023-04-08T10:27:52.524Z,10.54
2023-04-08T10:30:32.196Z,10.54
2023-04-08T10:33:03.469Z,10.59
2023-04-08T10:35:40.236Z,10.72
2023-04-08T10:38:12.950Z,11.32
2023-04-08T10:40:45.873Z,11.19
2023-04-08T10:43:16.789Z,11.20
2023-04-08T10:45:49.097Z,11.62
2023-04-08T10:48:23.816Z,11.66
2023-04-08T10:50:57.088Z,11.84
2023-04-08T10:53:31.560Z,11.37
2023-04-08T10:56:11.107Z,11.20
2023-04-08T10:58:52.771Z,11.33
2023-04-08T11:01:24.590Z,11.86
2023-04-08T11:03:55.455Z,11.81
2023-04-08T11:06:27.631Z,11.88
2023-04-08T11:09:00.177Z,11.88
2023-04-08T11:11:32.727Z,11.88
2023-04-08T11:14:04.843Z,12.16
2023-04-08T11:16:38.428Z,12.26
2023-04-08T11:19:12.055Z,12.18
2023-04-08T11:21:43.261Z,12.25
2023-04-08T11:24:14.456Z,12.14
2023-04-08T11:26:45.387Z,11.90
2023-04-08T11:29:19.191Z,11.87
2023-04-08T11:32:04.878Z,12.01
2023-04-08T11:34:37.078Z,12.04
2023-04-08T11:37:07.567Z,12.12
2023-04-08T11:39:45.927Z,12.42
2023-04-08T11:42:34.601Z,12.41
2023-04-08T11:45:13.393Z,12.72
2023-04-08T11:47:46.840Z,12.72
2023-04-08T11:50:29.081Z,12.20
2023-04-08T11:53:00.857Z,11.90
2023-04-08T11:55:35.136Z,11.85
2023-04-08T11:58:07.725Z,11.94
2023-04-08T12:00:41.747Z,11.98
2023-04-08T12:03:13.565Z,11.83
2023-04-08T12:05:44.562Z,11.72
2023-04-08T12:08:19.392Z,11.72
2023-04-08T12:10:50.246Z,11.88
2023-04-08T12:13:22.673Z,11.70
2023-04-08T12:15:53.281Z,11.58
2023-04-08T12:18:24.362Z,11.70
2023-04-08T12:20:55.023Z,11.51
2023-04-08T12:23:26.010Z,11.58
2023-04-08T12:25:56.623Z,11.81
2023-04-08T12:28:27.769Z,12.19
2023-04-08T12:31:00.062Z,12.34
2023-04-08T12:33:32.618Z,12.15
2023-04-08T12:36:03.690Z,11.56
2023-04-08T12:38:34.314Z,12.04
2023-04-08T12:41:05.090Z,12.58
2023-04-08T12:43:35.723Z,12.26
2023-04-08T12:46:07.954Z,12.43
2023-04-08T12:48:39.116Z,12.09
2023-04-08T12:51:10.682Z,12.41
2023-04-08T12:53:41.550Z,12.86
2023-04-08T12:56:12.374Z,13.56
2023-04-08T12:58:45.664Z,13.38
2023-04-08T13:01:19.620Z,13.02
2023-04-08T13:03:50.405Z,13.02
2023-04-08T13:06:21.114Z,12.97
2023-04-08T13:08:52.097Z,12.85
2023-04-08T13:11:22.980Z,12.67
2023-04-08T13:13:53.923Z,12.64
2023-04-08T13:16:26.120Z,12.37
2023-04-08T13:18:56.698Z,12.00
2023-04-08T13:21:28.008Z,11.92
2023-04-08T13:24:00.490Z,12.38
2023-04-08T13:26:32.616Z,12.64
2023-04-08T13:29:03.417Z,12.83
2023-04-08T13:31:34.493Z,12.64
2023-04-08T13:34:07.180Z,12.20
2023-04-08T13:36:37.715Z,12.60
2023-04-08T13:39:08.250Z,12.94
2023-04-08T13:41:39.032Z,13.36
2023-04-08T13:44:10.915Z,13.64
2023-04-08T13:46:42.784Z,13.61
2023-04-08T13:49:13.895Z,13.70
2023-04-08T13:51:45.654Z,12.72
2023-04-08T13:54:17.875Z,12.74
2023-04-08T13:56:51.169Z,12.96
2023-04-08T13:59:21.749Z,13.14
2023-04-08T14:01:54.290Z,13.16
2023-04-08T14:04:25.243Z,13.39
2023-04-08T14:06:57.538Z,14.01
2023-04-08T14:09:28.553Z,14.24
2023-04-08T14:11:59.051Z,14.15
2023-04-08T14:14:29.693Z,13.71
2023-04-08T14:17:05.689Z,13.13
2023-04-08T14:19:36.358Z,12.85
2023-04-08T14:22:08.336Z,12.76
2023-04-08T14:24:38.952Z,12.64
2023-04-08T14:27:12.593Z,12.46
2023-04-08T14:29:43.801Z,12.51
2023-04-08T14:32:14.691Z,12.60
2023-04-08T14:34:45.782Z,12.66
2023-04-08T14:37:17.792Z,12.64
2023-04-08T14:39:48.809Z,12.38
2023-04-08T14:42:22.556Z,12.38
2023-04-08T14:44:53.141Z,12.36
2023-04-08T14:47:26.558Z,12.48
2023-04-08T14:49:57.168Z,13.06
2023-04-08T14:52:31.210Z,13.60
2023-04-08T14:55:03.404Z,13.58
2023-04-08T14:57:34.237Z,13.32
2023-04-08T15:00:05.049Z,12.96
2023-04-08T15:02:35.865Z,12.88
2023-04-08T15:05:08.618Z,13.28
2023-04-08T15:07:40.817Z,13.37
2023-04-08T15:10:12.124Z,13.66
2023-04-08T15:12:42.667Z,13.36
2023-04-08T15:15:13.400Z,13.11
2023-04-08T15:17:44.036Z,12.90
2023-04-08T15:20:18.172Z,12.64
2023-04-08T15:22:50.138Z,12.49
2023-04-08T15:25:21.123Z,12.30
2023-04-08T15:27:52.411Z,12.18
2023-04-08T15:30:24.673Z,12.22
2023-04-08T15:32:57.384Z,12.38
2023-04-08T15:35:27.704Z,12.56
2023-04-08T15:38:02.012Z,12.65
2023-04-08T15:40:35.620Z,12.92
2023-04-08T15:43:06.877Z,12.80
2023-04-08T15:45:44.579Z,12.95
2023-04-08T15:48:16.730Z,12.91
2023-04-08T15:50:47.466Z,13.06
2023-04-08T15:53:18.144Z,12.92
2023-04-08T15:55:50.293Z,12.96
2023-04-08T15:58:21.297Z,13.04
2023-04-08T16:00:52.704Z,13.11
2023-04-08T16:03:23.345Z,12.96
2023-04-08T16:05:54.270Z,13.01
2023-04-08T16:08:24.833Z,13.01
2023-04-08T16:11:03.401Z,12.86
2023-04-08T16:13:34.372Z,12.94
2023-04-08T16:16:05.078Z,12.86
2023-04-08T16:18:35.937Z,12.60
2023-04-08T16:21:08.131Z,12.58
2023-04-08T16:23:39.002Z,12.56
2023-04-08T16:26:09.906Z,12.64
2023-04-08T16:28:41.062Z,12.79
2023-04-08T16:31:12.092Z,12.76
2023-04-08T16:33:42.863Z,12.70
2023-04-08T16:36:15.038Z,12.83
2023-04-08T16:38:47.764Z,12.56
2023-04-08T16:41:18.344Z,12.68
2023-04-08T16:43:51.096Z,12.76
2023-04-08T16:46:24.933Z,12.62
2023-04-08T16:48:55.716Z,12.56
2023-04-08T16:51:26.546Z,12.46
2023-04-08T16:53:58.976Z,12.46
2023-04-08T16:56:32.392Z,12.28
2023-04-08T16:59:03.058Z,12.16
2023-04-08T17:01:33.814Z,12.14
2023-04-08T17:04:05.504Z,12.20
2023-04-08T17:06:37.646Z,12.16
2023-04-08T17:09:09.941Z,12.23
2023-04-08T17:11:41.403Z,12.23
2023-04-08T17:14:12.318Z,11.95
2023-04-08T17:16:43.119Z,11.88
2023-04-08T17:19:15.443Z,11.57
2023-04-08T17:21:48.023Z,11.38
2023-04-08T17:24:20.403Z,10.85
2023-04-08T17:26:50.941Z,10.54
2023-04-08T17:29:22.278Z,10.28
2023-04-08T17:31:54.754Z,10.01
2023-04-08T17:34:26.479Z,9.94
2023-04-08T17:36:57.462Z,9.76
2023-04-08T17:39:30.146Z,9.72
2023-04-08T17:42:02.993Z,9.79
2023-04-08T17:44:33.676Z,9.90
2023-04-08T17:47:05.002Z,9.42
2023-04-08T17:49:36.014Z,9.47
2023-04-08T17:52:07.689Z,9.26
2023-04-08T17:54:41.831Z,9.11
2023-04-08T17:57:13.041Z,9.10
2023-04-08T17:59:44.944Z,9.00
2023-04-08T18:02:15.805Z,9.01
2023-04-08T18:04:47.922Z,9.04
2023-04-08T18:07:23.528Z,9.03
2023-04-08T18:09:54.180Z,8.86
2023-04-08T18:12:26.229Z,8.90
2023-04-08T18:14:58.305Z,8.87
2023-04-08T18:17:29.190Z,8.97
2023-04-08T18:20:00.324Z,8.82
2023-04-08T18:22:32.263Z,8.84
2023-04-08T18:25:03.253Z,8.82
2023-04-08T18:27:34.853Z,8.70
2023-04-08T18:30:05.824Z,8.83
2023-04-08T18:32:39.617Z,8.72
2023-04-08T18:35:11.982Z,8.74
2023-04-08T18:37:43.630Z,8.66
2023-04-08T18:40:15.396Z,8.66
2023-04-08T18:42:46.048Z,8.84
2023-04-08T18:45:16.570Z,8.80
2023-04-08T18:47:47.107Z,8.83
2023-04-08T18:50:17.692Z,8.90
2023-04-08T18:52:48.299Z,8.88
2023-04-08T18:55:18.947Z,8.76
2023-04-08T18:57:49.661Z,8.95
2023-04-08T19:00:21.763Z,8.74
2023-04-08T19:02:53.141Z,8.72
2023-04-08T19:05:24.070Z,8.70
2023-04-08T19:07:55.668Z,8.68
2023-04-08T19:10:26.333Z,8.68
2023-04-08T19:12:59.165Z,8.70
2023-04-08T19:15:30.498Z,8.88
2023-04-08T19:18:04.343Z,8.90
2023-04-08T19:20:36.535Z,8.71
2023-04-08T19:23:09.651Z,8.78
2023-04-08T19:25:40.315Z,8.86
2023-04-08T19:28:14.815Z,8.78
2023-04-08T19:30:45.461Z,8.76
2023-04-08T19:33:15.948Z,8.70
2023-04-08T19:35:49.542Z,8.54
2023-04-08T19:38:21.384Z,8.56
2023-04-08T19:40:53.498Z,8.50
2023-04-08T19:43:23.952Z,8.47
2023-04-08T19:45:55.996Z,8.44
2023-04-08T19:48:27.646Z,8.62
2023-04-08T19:50:59.688Z,8.46
2023-04-08T19:53:30.620Z,8.46
2023-04-08T19:56:02.474Z,8.32
2023-04-08T19:58:33.122Z,8.34
2023-04-08T20:01:04.956Z,8.25
2023-04-08T20:03:36.005Z,8.24
2023-04-08T20:06:06.782Z,8.13
2023-04-08T20:08:39.732Z,8.10
2023-04-08T20:11:13.170Z,8.06
2023-04-08T20:13:43.722Z,8.12
2023-04-08T20:16:14.522Z,8.08
2023-04-08T20:18:45.077Z,7.92
2023-04-08T20:21:15.702Z,7.92
2023-04-08T20:23:46.377Z,7.82
2023-04-08T20:26:23.056Z,7.80
2023-04-08T20:28:59.195Z,7.88
2023-04-08T20:31:32.387Z,7.85
2023-04-08T20:34:04.131Z,7.93
2023-04-08T20:36:36.441Z,7.90
2023-04-08T20:39:08.552Z,7.98
2023-04-08T20:41:41.529Z,7.94
2023-04-08T20:44:12.979Z,8.01
2023-04-08T20:46:45.291Z,7.94
2023-04-08T20:49:17.932Z,7.89
2023-04-08T20:51:48.817Z,7.69
2023-04-08T20:54:23.183Z,7.76
2023-04-08T20:56:55.691Z,7.54
2023-04-08T20:59:26.390Z,7.56
2023-04-08T21:01:57.939Z,7.65
2023-04-08T21:04:29.885Z,7.54
2023-04-08T21:07:03.572Z,7.62
2023-04-08T21:09:36.721Z,7.56
2023-04-08T21:12:10.672Z,7.52
2023-04-08T21:14:43.101Z,7.46
2023-04-08T21:17:13.770Z,7.44
2023-04-08T21:19:44.918Z,7.48
2023-04-08T21:22:18.349Z,7.49
2023-04-08T21:24:49.547Z,7.50
2023-04-08T21:27:20.326Z,7.31
2023-04-08T21:29:53.946Z,7.23
2023-04-08T21:32:25.166Z,7.38
2023-04-08T21:34:57.109Z,7.28
2023-04-08T21:37:27.896Z,7.28
2023-04-08T21:39:58.379Z,7.28
2023-04-08T21:42:28.904Z,7.38
2023-04-08T21:45:00.797Z,7.38
2023-04-08T21:47:34.552Z,7.24
2023-04-08T21:50:07.273Z,7.10
2023-04-08T21:52:37.999Z,6.92
2023-04-08T21:55:09.939Z,6.80
2023-04-08T21:57:42.647Z,6.78
2023-04-08T22:00:14.393Z,6.80
2023-04-08T22:02:45.189Z,6.81
2023-04-08T22:05:17.143Z,6.77
2023-04-08T22:07:49.268Z,6.69
2023-04-08T22:10:21.123Z,6.65
2023-04-08T22:12:53.310Z,6.64
2023-04-08T22:15:23.933Z,6.55
2023-04-08T22:17:56.566Z,6.40
2023-04-08T22:20:27.665Z,6.30
2023-04-08T22:22:58.352Z,6.34
2023-04-08T22:25:28.866Z,6.47
2023-04-08T22:27:59.485Z,6.36
2023-04-08T22:30:31.187Z,6.74
2023-04-08T22:33:03.004Z,6.53
2023-04-08T22:35:33.539Z,6.58
2023-04-08T22:38:05.340Z,6.46
2023-04-08T22:40:38.828Z,6.45
2023-04-08T22:43:09.348Z,6.40
2023-04-08T22:45:39.993Z,6.48
2023-04-08T22:48:10.615Z,6.34
2023-04-08T22:50:41.443Z,6.33
2023-04-08T22:53:13.609Z,6.18
2023-04-08T22:55:44.103Z,6.22
2023-04-08T22:58:14.722Z,6.12
2023-04-08T23:00:45.387Z,6.26
2023-04-08T23:03:16.213Z,6.15
2023-04-08T23:05:47.648Z,6.06
2023-04-08T23:08:18.140Z,5.96
2023-04-08T23:10:48.929Z,5.88
2023-04-08T23:13:19.512Z,5.77
2023-04-08T23:15:50.078Z,5.68
2023-04-08T23:18:20.812Z,5.64
2023-04-08T23:20:56.746Z,5.68
2023-04-08T23:23:28.567Z,5.70
2023-04-08T23:25:59.309Z,5.84
2023-04-08T23:28:29.775Z,5.88
2023-04-08T23:31:00.423Z,5.92
2023-04-08T23:33:31.038Z,5.86
2023-04-08T23:36:01.569Z,5.90
2023-04-08T23:38:32.622Z,5.82
2023-04-08T23:41:08.734Z,5.67
2023-04-08T23:43:39.384Z,5.56
2023-04-08T23:46:09.968Z,5.48
2023-04-08T23:48:40.583Z,5.48
2023-04-08T23:51:11.762Z,5.39
2023-04-08T23:53:42.296Z,5.44
2023-04-08T23:56:12.884Z,5.42
2023-04-08T23:58:43.358Z,5.42
